Time;durP1;ratioP1;P1;durP2;ratioP2;P2;SDS_P1;SDS_P2;PMS_P1;PMS_P2;Temp;Humidity;BMP_temperature;BMP_pressure;BME280_temperature;BME280_humidity;BME280_pressure;Samples;Min_cycle;Max_cycle;Signal;HPM_P1;HPM_P2
2022/07/18 00:00:22;;;;;;;4.07;1.23;;;18.30;64.30;;;;;;5054746;28;20840;-65
2022/07/18 00:02:48;;;;;;;3.00;1.27;;;18.20;64.30;;;;;;5054708;28;20180;-65
2022/07/18 00:05:13;;;;;;;1.30;1.20;;;18.20;64.30;;;;;;5054484;28;20295;-65
2022/07/18 00:07:39;;;;;;;1.38;1.10;;;18.20;64.40;;;;;;5054291;28;20252;-65
2022/07/18 00:10:05;;;;;;;1.90;1.30;;;18.10;64.40;;;;;;5054604;28;20289;-65
2022/07/18 00:12:31;;;;;;;4.15;1.40;;;18.10;64.70;;;;;;5054272;28;20227;-65
2022/07/18 00:14:56;;;;;;;3.15;1.30;;;18.00;64.70;;;;;;5054278;28;20213;-65
2022/07/18 00:17:22;;;;;;;3.17;1.25;;;17.90;65.00;;;;;;5053950;28;20173;-65
2022/07/18 00:19:47;;;;;;;2.03;1.45;;;17.80;65.60;;;;;;5054606;28;20666;-65
2022/07/18 00:22:13;;;;;;;1.23;1.13;;;17.70;65.90;;;;;;5053797;28;20257;-65
2022/07/18 00:24:39;;;;;;;1.33;1.23;;;17.70;65.90;;;;;;5054494;28;20185;-65
2022/07/18 00:27:07;;;;;;;3.08;1.27;;;17.80;66.40;;;;;;5053990;28;20174;-65
2022/07/18 00:29:35;;;;;;;2.25;1.30;;;17.80;66.20;;;;;;5053974;28;20212;-65
2022/07/18 00:32:02;;;;;;;3.35;1.15;;;17.70;66.10;;;;;;5054203;28;20821;-65
2022/07/18 00:34:27;;;;;;;3.22;1.33;;;17.80;65.90;;;;;;5053629;28;20618;-65
2022/07/18 00:36:52;;;;;;;3.50;1.20;;;17.70;66.10;;;;;;5053577;28;20380;-65
2022/07/18 00:39:18;;;;;;;1.30;1.20;;;17.70;64.90;;;;;;5053664;28;20231;-65
2022/07/18 00:41:49;;;;;;;1.60;1.10;;;17.70;64.70;;;;;;5053959;28;20177;-65
2022/07/18 00:44:20;;;;;;;1.85;1.20;;;17.60;65.00;;;;;;5053841;28;20255;-65
2022/07/18 00:46:49;;;;;;;1.15;1.10;;;17.50;65.90;;;;;;5053917;28;20211;-65
2022/07/18 00:49:15;;;;;;;4.20;1.50;;;17.50;66.40;;;;;;5053082;28;20721;-65
2022/07/18 00:51:40;;;;;;;1.52;1.27;;;17.50;66.60;;;;;;5053582;28;20181;-65
2022/07/18 00:54:07;;;;;;;4.80;1.42;;;17.40;66.50;;;;;;5053475;28;20220;-65
2022/07/18 00:56:33;;;;;;;1.65;1.23;;;17.40;66.30;;;;;;5052889;28;20272;-65
2022/07/18 00:58:58;;;;;;;2.47;1.20;;;17.30;66.40;;;;;;5053297;28;20328;-65
2022/07/18 01:01:42;;;;;;;1.35;0.95;;;17.30;66.30;;;;;;5053664;28;20181;-65
2022/07/18 01:04:13;;;;;;;2.42;0.90;;;17.30;66.30;;;;;;5053466;28;20200;-65
2022/07/18 01:06:39;;;;;;;3.22;1.52;;;17.30;66.10;;;;;;5053807;28;20636;-65
2022/07/18 01:09:05;;;;;;;1.25;1.08;;;17.20;65.80;;;;;;5053373;28;20671;-65
2022/07/18 01:11:32;;;;;;;1.45;1.23;;;17.20;66.30;;;;;;5053506;28;20177;-66
2022/07/18 01:13:58;;;;;;;1.63;1.00;;;17.20;67.10;;;;;;5053145;28;20181;-65
2022/07/18 01:16:24;;;;;;;1.38;1.27;;;17.10;67.00;;;;;;5053569;28;20197;-65
2022/07/18 01:18:50;;;;;;;2.92;1.20;;;17.00;67.40;;;;;;5052845;28;20240;-65
2022/07/18 01:21:16;;;;;;;3.65;0.90;;;17.00;67.50;;;;;;5052964;28;20275;-65
2022/07/18 01:23:42;;;;;;;1.00;1.00;;;17.00;67.80;;;;;;5053093;28;20186;-65
2022/07/18 01:26:08;;;;;;;1.15;1.10;;;16.90;67.90;;;;;;5053237;28;20447;-65
2022/07/18 01:28:34;;;;;;;2.03;1.40;;;16.80;67.90;;;;;;5052769;28;20285;-65
2022/07/18 01:30:59;;;;;;;1.38;1.27;;;16.80;68.70;;;;;;5053444;28;20269;-65
2022/07/18 01:33:25;;;;;;;1.38;1.27;;;16.80;68.80;;;;;;5066965;28;20169;-65
2022/07/18 01:35:51;;;;;;;1.30;1.20;;;16.70;68.30;;;;;;5068624;28;20221;-65
2022/07/18 01:38:18;;;;;;;5.10;1.30;;;16.70;68.50;;;;;;5053795;28;20177;-65
2022/07/18 01:40:45;;;;;;;2.70;1.25;;;16.60;69.20;;;;;;5053794;28;20545;-65
2022/07/18 01:43:11;;;;;;;2.92;1.40;;;16.60;69.50;;;;;;5053282;28;20178;-65
2022/07/18 01:45:36;;;;;;;4.20;1.20;;;16.60;69.60;;;;;;5053253;28;20180;-65
2022/07/18 01:48:02;;;;;;;1.52;1.08;;;16.50;70.10;;;;;;5053554;28;20174;-66
2022/07/18 01:50:28;;;;;;;1.38;1.02;;;16.60;70.40;;;;;;5053247;28;20227;-65
2022/07/18 01:52:53;;;;;;;2.92;1.30;;;16.50;70.50;;;;;;5053087;28;21766;-65
2022/07/18 01:55:19;;;;;;;1.42;1.10;;;16.50;70.50;;;;;;5052838;28;20683;-65
2022/07/18 01:57:44;;;;;;;2.78;1.10;;;16.50;70.50;;;;;;5052610;28;20256;-65
2022/07/18 02:00:11;;;;;;;1.33;1.23;;;16.50;70.70;;;;;;5052298;28;20196;-65
2022/07/18 02:02:37;;;;;;;1.52;1.30;;;16.40;70.80;;;;;;5052681;28;20178;-65
2022/07/18 02:05:04;;;;;;;1.58;1.48;;;16.40;71.40;;;;;;5052617;28;20175;-65
2022/07/18 02:07:36;;;;;;;1.42;1.00;;;16.50;71.40;;;;;;5052082;28;20185;-65
2022/07/18 02:10:06;;;;;;;3.58;1.15;;;16.40;71.10;;;;;;5051831;28;20537;-65
2022/07/18 02:12:32;;;;;;;1.52;1.33;;;16.40;71.10;;;;;;5052406;28;20583;-65
2022/07/18 02:14:57;;;;;;;0.90;0.90;;;16.30;71.40;;;;;;5051935;28;20209;-65
2022/07/18 02:17:23;;;;;;;1.98;1.15;;;16.30;71.50;;;;;;5052229;28;20185;-65
2022/07/18 02:19:48;;;;;;;1.77;1.30;;;16.30;71.50;;;;;;5051688;28;20221;-65
2022/07/18 02:22:14;;;;;;;2.88;1.30;;;16.20;71.40;;;;;;5051765;28;20639;-65
2022/07/18 02:24:40;;;;;;;1.58;1.30;;;16.20;71.20;;;;;;5051895;28;20208;-65
2022/07/18 02:27:05;;;;;;;3.13;1.23;;;16.10;71.70;;;;;;5052395;28;20181;-65
2022/07/18 02:29:31;;;;;;;3.67;1.35;;;16.10;71.80;;;;;;5051807;28;20181;-65
2022/07/18 02:31:57;;;;;;;1.75;1.02;;;16.10;71.90;;;;;;5051591;28;20267;-65
2022/07/18 02:34:22;;;;;;;2.78;1.30;;;16.10;72.00;;;;;;5051036;28;20227;-65
2022/07/18 02:36:50;;;;;;;2.65;1.30;;;16.00;72.50;;;;;;5052191;28;20178;-65
2022/07/18 02:39:17;;;;;;;1.73;1.30;;;16.00;72.60;;;;;;5051572;28;20188;-65
2022/07/18 02:41:42;;;;;;;1.30;1.10;;;16.00;72.90;;;;;;5051579;28;20186;-65
2022/07/18 02:44:08;;;;;;;2.08;1.20;;;16.00;73.50;;;;;;5051718;28;20271;-65
2022/07/18 02:46:34;;;;;;;1.15;1.05;;;15.90;73.90;;;;;;5051438;28;20185;-65
2022/07/18 02:48:59;;;;;;;1.45;1.08;;;15.90;74.30;;;;;;5051862;28;20684;-65
2022/07/18 02:51:25;;;;;;;3.15;1.40;;;15.90;74.90;;;;;;5051590;28;20189;-65
2022/07/18 02:53:51;;;;;;;2.05;1.25;;;15.80;75.00;;;;;;5051305;28;20261;-65
2022/07/18 02:56:17;;;;;;;3.22;1.58;;;15.80;75.60;;;;;;5051717;28;20256;-65
2022/07/18 02:58:42;;;;;;;1.40;1.30;;;15.80;75.70;;;;;;5051458;28;20562;-65
2022/07/18 03:01:08;;;;;;;3.38;1.20;;;15.80;76.20;;;;;;5046392;28;20251;-65
2022/07/18 03:03:33;;;;;;;2.60;1.90;;;15.70;76.40;;;;;;5047099;28;20220;-65
2022/07/18 03:05:59;;;;;;;1.75;1.20;;;15.70;76.90;;;;;;5050772;28;20280;-65
2022/07/18 03:08:24;;;;;;;1.55;1.40;;;15.70;77.40;;;;;;5049689;28;20264;-65
2022/07/18 03:10:50;;;;;;;2.65;1.80;;;15.70;77.90;;;;;;5049716;28;20178;-65
2022/07/18 03:13:15;;;;;;;1.95;1.35;;;15.70;78.30;;;;;;5051192;28;20644;-65
2022/07/18 03:15:41;;;;;;;2.22;1.42;;;15.70;78.60;;;;;;5051120;28;20220;-65
2022/07/18 03:18:06;;;;;;;1.65;1.35;;;15.60;79.00;;;;;;5051112;28;20181;-65
2022/07/18 03:20:32;;;;;;;3.15;1.42;;;15.60;79.30;;;;;;5051154;28;20220;-64
2022/07/18 03:22:58;;;;;;;5.25;1.52;;;15.50;79.70;;;;;;5055753;28;20173;-65
2022/07/18 03:25:25;;;;;;;1.50;1.40;;;15.50;80.30;;;;;;5054735;28;20242;-65
2022/07/18 03:27:50;;;;;;;5.50;1.88;;;15.50;80.40;;;;;;5054867;28;20181;-65
2022/07/18 03:30:16;;;;;;;2.28;1.73;;;15.50;81.00;;;;;;5054729;28;20181;-65
2022/07/18 03:32:42;;;;;;;2.35;1.40;;;15.50;81.50;;;;;;5053850;28;20196;-65
2022/07/18 03:35:07;;;;;;;2.83;1.65;;;15.50;82.00;;;;;;5042887;28;20220;-65
2022/07/18 03:37:33;;;;;;;3.60;1.95;;;15.50;82.80;;;;;;5053387;28;20186;-65
2022/07/18 03:39:59;;;;;;;2.42;1.50;;;15.50;82.40;;;;;;5054866;28;20201;-65
2022/07/18 03:42:24;;;;;;;1.95;1.60;;;15.40;82.30;;;;;;5054471;28;20173;-66
2022/07/18 03:44:50;;;;;;;4.85;1.83;;;15.50;83.10;;;;;;5054280;28;20181;-66
2022/07/18 03:47:15;;;;;;;3.58;1.70;;;15.50;83.40;;;;;;5054272;28;20260;-64
2022/07/18 03:49:41;;;;;;;4.88;1.67;;;15.50;83.90;;;;;;5054830;28;20189;-64
2022/07/18 03:52:06;;;;;;;1.60;1.50;;;15.50;84.00;;;;;;5054303;28;20260;-64
2022/07/18 03:54:32;;;;;;;1.35;1.25;;;15.50;84.00;;;;;;5052206;28;20215;-64
2022/07/18 03:56:57;;;;;;;1.45;1.35;;;15.50;84.10;;;;;;5054822;28;20189;-65
2022/07/18 03:59:23;;;;;;;3.38;1.50;;;15.50;83.80;;;;;;5052551;28;20174;-69
2022/07/18 04:01:49;;;;;;;3.10;1.38;;;15.50;83.50;;;;;;5054192;28;20268;-75
2022/07/18 04:04:14;;;;;;;3.60;1.52;;;15.60;83.30;;;;;;5054394;28;20216;-64
2022/07/18 04:06:40;;;;;;;1.48;1.30;;;15.60;83.70;;;;;;5054279;28;20200;-66
2022/07/18 04:09:05;;;;;;;2.08;1.60;;;15.70;84.30;;;;;;5054118;28;20636;-67
2022/07/18 04:11:31;;;;;;;1.42;1.30;;;15.70;84.30;;;;;;5054130;28;20575;-67
2022/07/18 04:13:57;;;;;;;3.10;1.50;;;15.70;84.30;;;;;;5053701;28;20174;-64
2022/07/18 04:16:23;;;;;;;2.38;1.50;;;15.70;84.30;;;;;;5053952;28;20296;-63
2022/07/18 04:18:49;;;;;;;1.83;1.40;;;15.70;84.90;;;;;;5054222;28;20264;-68
2022/07/18 04:21:16;;;;;;;1.60;1.50;;;15.80;85.10;;;;;;5053079;28;20255;-63
2022/07/18 04:23:41;;;;;;;2.55;1.48;;;15.80;85.00;;;;;;5049953;28;20186;-64
2022/07/18 04:26:07;;;;;;;2.47;1.70;;;15.80;85.10;;;;;;5046580;28;20648;-63
2022/07/18 04:28:33;;;;;;;2.60;1.60;;;15.90;85.50;;;;;;5053255;28;20220;-63
2022/07/18 04:30:58;;;;;;;3.10;1.70;;;15.90;85.70;;;;;;5053754;28;20185;-64
2022/07/18 04:33:24;;;;;;;1.75;1.65;;;16.00;85.10;;;;;;5046491;28;20280;-66
2022/07/18 04:35:49;;;;;;;1.85;1.65;;;16.10;82.80;;;;;;5034197;28;20222;-65
2022/07/18 04:38:15;;;;;;;4.57;1.83;;;16.40;80.00;;;;;;5049614;28;20697;-64
2022/07/18 04:40:41;;;;;;;2.35;1.75;;;16.60;79.00;;;;;;5053609;28;20209;-64
2022/07/18 04:43:07;;;;;;;3.65;2.00;;;17.00;77.00;;;;;;5052054;28;20545;-64
2022/07/18 04:45:34;;;;;;;3.35;1.48;;;17.30;75.80;;;;;;5053904;28;20184;-64
2022/07/18 04:48:00;;;;;;;2.88;1.60;;;17.70;74.40;;;;;;5053606;28;20177;-64
2022/07/18 04:50:29;;;;;;;3.55;1.63;;;18.00;72.20;;;;;;5053761;28;20599;-64
2022/07/18 04:52:55;;;;;;;1.58;1.40;;;18.40;71.00;;;;;;5053675;28;20620;-64
2022/07/18 04:55:22;;;;;;;2.08;1.45;;;18.80;70.00;;;;;;5053937;28;20213;-64
2022/07/18 04:57:47;;;;;;;1.35;1.17;;;19.20;68.20;;;;;;5053300;28;20181;-64
2022/07/18 05:00:16;;;;;;;2.35;1.13;;;19.50;66.40;;;;;;5035333;28;20190;-64
2022/07/18 05:02:43;;;;;;;2.40;1.42;;;19.70;65.50;;;;;;5045132;28;20183;-64
2022/07/18 05:05:10;;;;;;;3.58;1.55;;;20.00;65.20;;;;;;5051966;28;20645;-64
2022/07/18 05:07:37;;;;;;;4.70;1.20;;;20.40;64.20;;;;;;5053310;28;20178;-64
2022/07/18 05:10:07;;;;;;;1.58;1.30;;;20.80;63.80;;;;;;5053688;28;20592;-64
2022/07/18 05:12:36;;;;;;;1.13;1.05;;;21.10;63.00;;;;;;5053161;28;20180;-64
2022/07/18 05:15:05;;;;;;;1.38;1.30;;;21.40;61.20;;;;;;5053608;28;20220;-64
2022/07/18 05:17:31;;;;;;;2.00;1.10;;;21.70;60.30;;;;;;5051847;28;20177;-64
2022/07/18 05:19:56;;;;;;;5.28;1.33;;;21.90;59.90;;;;;;5053555;28;20180;-64
2022/07/18 05:22:22;;;;;;;2.00;1.17;;;22.20;59.60;;;;;;5052750;28;20229;-64
2022/07/18 05:24:48;;;;;;;5.18;1.30;;;22.50;58.70;;;;;;5053313;28;20264;-64
2022/07/18 05:27:13;;;;;;;2.85;1.10;;;22.80;58.30;;;;;;5052975;28;20610;-64
2022/07/18 05:29:39;;;;;;;3.13;1.20;;;23.10;57.80;;;;;;5053366;28;20181;-64
2022/07/18 05:32:05;;;;;;;3.70;1.17;;;23.40;57.40;;;;;;5053017;28;20511;-64
2022/07/18 05:34:30;;;;;;;2.92;1.33;;;23.80;56.70;;;;;;5052751;28;20213;-64
2022/07/18 05:36:56;;;;;;;1.92;1.55;;;24.20;56.20;;;;;;5051689;28;20207;-64
2022/07/18 05:39:21;;;;;;;2.85;1.15;;;24.60;55.40;;;;;;5053246;28;20285;-64
2022/07/18 05:41:47;;;;;;;3.22;1.30;;;25.00;54.90;;;;;;5052920;28;20186;-64
2022/07/18 05:44:12;;;;;;;1.63;1.08;;;25.40;53.80;;;;;;5050663;28;20204;-64
2022/07/18 05:46:38;;;;;;;1.77;1.40;;;25.90;53.10;;;;;;5052984;28;20191;-64
2022/07/18 05:49:03;;;;;;;4.13;1.45;;;26.30;52.10;;;;;;5052759;28;20191;-64
2022/07/18 05:51:29;;;;;;;3.15;1.50;;;26.60;50.90;;;;;;5052421;28;20554;-64
2022/07/18 05:53:54;;;;;;;1.77;1.17;;;26.80;50.80;;;;;;5051315;28;20208;-64
2022/07/18 05:56:20;;;;;;;2.17;1.23;;;27.20;49.50;;;;;;5052365;28;20610;-65
2022/07/18 05:58:45;;;;;;;3.20;1.30;;;27.60;48.90;;;;;;5052891;28;20580;-65
2022/07/18 06:01:16;;;;;;;1.60;1.02;;;28.00;47.90;;;;;;5052208;28;20181;-65
2022/07/18 06:03:42;;;;;;;1.67;0.98;;;28.40;46.80;;;;;;5052020;28;20263;-65
2022/07/18 06:06:07;;;;;;;2.63;1.30;;;28.70;46.10;;;;;;5051912;28;20216;-65
2022/07/18 06:08:33;;;;;;;4.00;1.23;;;29.00;45.00;;;;;;5052600;28;20184;-65
2022/07/18 06:10:58;;;;;;;3.53;1.15;;;29.20;44.60;;;;;;5052265;28;20185;-65
2022/07/18 06:13:24;;;;;;;2.40;1.08;;;29.40;44.30;;;;;;5052380;28;20220;-65
2022/07/18 06:15:50;;;;;;;3.65;1.17;;;29.60;44.00;;;;;;5052012;28;20212;-65
2022/07/18 06:18:15;;;;;;;2.35;1.20;;;29.80;43.80;;;;;;5052414;28;20177;-64
2022/07/18 06:20:41;;;;;;;2.53;1.40;;;30.10;43.20;;;;;;5051990;28;20291;-65
2022/07/18 06:23:06;;;;;;;2.47;1.30;;;30.50;43.00;;;;;;5051518;28;20208;-65
2022/07/18 06:25:32;;;;;;;3.63;1.17;;;30.90;41.80;;;;;;5050789;28;20538;-65
2022/07/18 06:27:57;;;;;;;1.63;1.42;;;31.10;41.60;;;;;;5051981;28;20213;-65
2022/07/18 06:30:23;;;;;;;2.30;1.40;;;31.30;41.30;;;;;;5052280;28;20189;-65
2022/07/18 06:32:49;;;;;;;7.35;1.70;;;31.20;40.70;;;;;;5050479;28;20177;-65
2022/07/18 06:35:14;;;;;;;4.28;1.45;;;30.90;40.70;;;;;;5050370;28;20223;-65
2022/07/18 06:37:40;;;;;;;2.75;1.33;;;30.60;41.50;;;;;;5051729;28;20192;-65
2022/07/18 06:40:06;;;;;;;3.20;1.40;;;30.60;41.40;;;;;;5050460;28;20177;-65
2022/07/18 06:42:31;;;;;;;1.42;1.20;;;30.80;41.60;;;;;;5040283;28;20174;-68
2022/07/18 06:44:57;;;;;;;1.40;1.30;;;31.00;41.60;;;;;;5051413;28;20177;-67
2022/07/18 06:47:22;;;;;;;5.88;2.13;;;31.40;41.50;;;;;;5051707;28;20180;-67
2022/07/18 06:49:48;;;;;;;8.32;2.08;;;31.90;40.80;;;;;;5051502;28;20190;-67
2022/07/18 06:52:15;;;;;;;4.93;1.75;;;32.50;40.30;;;;;;5051334;28;20219;-67
2022/07/18 06:54:41;;;;;;;3.53;1.30;;;33.00;39.40;;;;;;5050421;28;20294;-67
2022/07/18 06:57:07;;;;;;;10.20;4.97;;;33.10;39.00;;;;;;5047958;28;20222;-67
2022/07/18 06:59:33;;;;;;;8.20;3.80;;;33.40;39.10;;;;;;5049982;28;20205;-67
2022/07/18 07:01:59;;;;;;;4.60;2.17;;;33.90;38.50;;;;;;5051028;28;20173;-67
2022/07/18 07:04:25;;;;;;;2.72;1.38;;;34.20;37.80;;;;;;5051847;28;20620;-67
2022/07/18 07:06:50;;;;;;;4.55;2.20;;;34.30;37.70;;;;;;5051939;28;20184;-66
2022/07/18 07:09:16;;;;;;;2.63;1.40;;;34.60;37.70;;;;;;5051855;28;20231;-66
2022/07/18 07:11:41;;;;;;;12.10;5.70;;;34.90;37.90;;;;;;5051932;28;20196;-67
2022/07/18 07:14:07;;;;;;;4.80;2.53;;;35.20;36.70;;;;;;5051718;28;20188;-67
2022/07/18 07:16:32;;;;;;;2.55;1.40;;;35.60;36.60;;;;;;5051870;28;20187;-67
2022/07/18 07:18:58;;;;;;;1.48;1.30;;;35.90;35.90;;;;;;5051896;28;20568;-67
2022/07/18 07:21:23;;;;;;;2.20;1.35;;;36.10;35.80;;;;;;5051547;28;20634;-67
2022/07/18 07:23:49;;;;;;;2.85;1.40;;;36.40;35.80;;;;;;5051653;28;20188;-67
2022/07/18 07:26:15;;;;;;;2.60;1.20;;;36.50;35.10;;;;;;5051716;28;20169;-67
2022/07/18 07:28:40;;;;;;;1.55;1.45;;;36.60;34.10;;;;;;5051927;28;20181;-67
2022/07/18 07:31:06;;;;;;;2.67;1.23;;;36.60;34.30;;;;;;5050454;28;20181;-67
2022/07/18 07:33:32;;;;;;;1.67;1.33;;;36.60;34.30;;;;;;5051775;28;20546;-67
2022/07/18 07:35:57;;;;;;;3.03;1.30;;;36.50;33.70;;;;;;5051575;28;20574;-67
2022/07/18 07:38:27;;;;;;;1.30;1.20;;;36.40;33.80;;;;;;5050348;28;20184;-67
2022/07/18 07:40:54;;;;;;;2.13;1.33;;;36.60;34.30;;;;;;5051775;28;20185;-67
2022/07/18 07:43:19;;;;;;;1.35;1.08;;;36.90;33.40;;;;;;5051570;28;20181;-64
2022/07/18 07:45:49;;;;;;;2.20;1.20;;;37.00;33.30;;;;;;5051696;28;20224;-64
2022/07/18 07:48:15;;;;;;;1.35;1.10;;;37.30;32.80;;;;;;5051530;28;20183;-64
2022/07/18 07:50:41;;;;;;;1.95;1.30;;;37.50;32.30;;;;;;5051660;28;20184;-67
2022/07/18 07:53:07;;;;;;;2.42;1.00;;;37.50;33.20;;;;;;5051493;28;20181;-67
2022/07/18 07:55:32;;;;;;;4.68;1.63;;;37.70;33.40;;;;;;5051385;28;20737;-67
2022/07/18 07:57:58;;;;;;;5.25;2.40;;;38.00;32.70;;;;;;5051616;28;20662;-67
2022/07/18 08:00:23;;;;;;;3.35;1.05;;;38.00;32.10;;;;;;5051270;28;20543;-67
2022/07/18 08:02:56;;;;;;;5.25;1.45;;;38.00;32.60;;;;;;5051239;28;20192;-67
2022/07/18 08:05:22;;;;;;;3.30;1.63;;;37.80;31.60;;;;;;5051312;28;20188;-67
2022/07/18 08:07:48;;;;;;;2.58;1.73;;;37.40;32.30;;;;;;5054490;28;20210;-67
2022/07/18 08:10:14;;;;;;;1.95;1.38;;;37.30;33.60;;;;;;5055109;28;20208;-67
2022/07/18 08:12:39;;;;;;;1.73;1.38;;;37.60;34.10;;;;;;5055081;28;20187;-67
2022/07/18 08:15:05;;;;;;;3.63;1.50;;;37.90;32.90;;;;;;5054975;28;20220;-67
2022/07/18 08:17:31;;;;;;;4.68;1.23;;;38.10;32.70;;;;;;5054837;28;20200;-67
2022/07/18 08:19:57;;;;;;;2.53;1.25;;;38.20;31.90;;;;;;5054859;28;20636;-66
2022/07/18 08:22:22;;;;;;;2.30;1.35;;;38.00;31.90;;;;;;5054602;28;20224;-67
2022/07/18 08:24:48;;;;;;;1.58;1.20;;;37.90;32.90;;;;;;5054679;28;20172;-67
2022/07/18 08:27:13;;;;;;;1.77;1.40;;;38.00;33.20;;;;;;5054713;28;20663;-67
2022/07/18 08:29:39;;;;;;;1.70;1.38;;;38.10;32.60;;;;;;5054764;28;20168;-67
2022/07/18 08:32:05;;;;;;;2.95;1.40;;;38.00;31.80;;;;;;5054683;28;20209;-67
2022/07/18 08:34:31;;;;;;;2.30;1.20;;;37.90;31.70;;;;;;5054439;28;20284;-67
2022/07/18 08:36:56;;;;;;;2.00;1.20;;;37.70;32.30;;;;;;5054633;28;20184;-67
2022/07/18 08:39:22;;;;;;;3.08;0.88;;;37.40;31.60;;;;;;5054429;28;20172;-67
2022/07/18 08:41:50;;;;;;;2.95;1.13;;;37.20;32.40;;;;;;5054332;28;20172;-67
2022/07/18 08:44:16;;;;;;;3.33;2.05;;;37.10;32.40;;;;;;5054212;28;20318;-67
2022/07/18 08:46:49;;;;;;;1.75;1.20;;;37.20;33.40;;;;;;5054508;28;20268;-67
2022/07/18 08:49:15;;;;;;;2.55;1.45;;;37.30;32.70;;;;;;5054301;28;20176;-67
2022/07/18 08:51:43;;;;;;;2.03;1.40;;;37.00;32.20;;;;;;5054367;28;20188;-67
2022/07/18 08:54:09;;;;;;;1.38;1.27;;;36.90;33.30;;;;;;5054113;28;20173;-67
2022/07/18 08:56:34;;;;;;;2.33;1.38;;;36.90;33.10;;;;;;5054084;28;20710;-67
2022/07/18 08:59:02;;;;;;;5.53;1.63;;;37.10;32.40;;;;;;5054230;28;20180;-67
2022/07/18 09:01:28;;;;;;;2.38;1.25;;;37.10;32.90;;;;;;5052780;28;20675;-67
2022/07/18 09:06:46;;;;;;;2.60;1.25;;;37.10;31.70;;;;;;5054112;28;20179;-67
2022/07/18 09:09:14;;;;;;;3.35;1.15;;;36.80;32.20;;;;;;5052707;28;20184;-67
2022/07/18 09:11:58;;;;;;;1.67;1.25;;;36.70;32.20;;;;;;5053965;28;20666;-67
2022/07/18 09:14:38;;;;;;;3.47;1.50;;;36.60;32.90;;;;;;5052471;28;20188;-67
2022/07/18 09:17:18;;;;;;;2.13;1.33;;;36.70;32.10;;;;;;5053583;28;20177;-67
2022/07/18 09:20:10;;;;;;;1.48;1.23;;;36.60;31.90;;;;;;5053465;28;20181;-68
2022/07/18 09:22:37;;;;;;;2.70;1.30;;;36.40;32.40;;;;;;5053856;28;20203;-67
2022/07/18 09:25:20;;;;;;;2.00;1.20;;;36.30;32.00;;;;;;5053712;28;20173;-67
2022/07/18 09:27:51;;;;;;;2.78;1.67;;;36.10;32.40;;;;;;5053662;28;20180;-67
2022/07/18 09:30:35;;;;;;;1.55;1.23;;;36.20;32.50;;;;;;5053614;28;20256;-67
2022/07/18 09:33:03;;;;;;;1.20;1.20;;;36.30;31.90;;;;;;5053692;28;20185;-67
2022/07/18 09:35:32;;;;;;;1.50;1.40;;;36.40;31.20;;;;;;5053215;28;20224;-67
2022/07/18 09:38:07;;;;;;;2.50;1.40;;;36.50;31.60;;;;;;5053453;28;20588;-67
2022/07/18 09:40:57;;;;;;;1.92;1.52;;;36.80;31.20;;;;;;5053410;28;20181;-67
2022/07/18 09:43:24;;;;;;;1.20;1.10;;;37.10;31.60;;;;;;5053147;28;20185;-66
2022/07/18 09:45:53;;;;;;;1.40;1.30;;;37.10;29.90;;;;;;5053150;28;20543;-67
2022/07/18 09:48:21;;;;;;;2.15;1.40;;;37.10;29.60;;;;;;5053138;28;20659;-67
2022/07/18 09:50:59;;;;;;;7.25;1.45;;;37.20;30.50;;;;;;5052973;28;20666;-67
2022/07/18 09:53:27;;;;;;;1.52;1.00;;;37.40;30.80;;;;;;5053102;28;20177;-67
2022/07/18 09:55:54;;;;;;;1.70;1.40;;;37.50;30.00;;;;;;5052950;28;20323;-67
2022/07/18 09:58:24;;;;;;;2.67;1.10;;;37.60;29.50;;;;;;5053026;28;20632;-67
2022/07/18 10:00:51;;;;;;;1.35;1.10;;;37.40;29.50;;;;;;5052828;28;20177;-67
2022/07/18 10:03:18;;;;;;;7.05;1.40;;;37.30;32.10;;;;;;5052896;28;20177;-67
2022/07/18 10:05:46;;;;;;;2.75;1.10;;;37.50;29.70;;;;;;5052990;28;20184;-67
2022/07/18 10:08:14;;;;;;;2.13;1.40;;;37.60;29.50;;;;;;5052841;28;20204;-67
2022/07/18 10:10:42;;;;;;;1.45;1.10;;;37.50;30.00;;;;;;5052677;28;20191;-67
2022/07/18 10:13:08;;;;;;;3.08;1.20;;;37.60;30.00;;;;;;5052612;28;20204;-67
2022/07/18 10:15:37;;;;;;;2.00;1.20;;;37.70;29.00;;;;;;5051410;28;20288;-66
2022/07/18 10:18:06;;;;;;;2.67;1.20;;;37.70;28.50;;;;;;5052787;28;20231;-66
2022/07/18 10:20:38;;;;;;;2.22;1.23;;;37.50;28.80;;;;;;5052361;28;20216;-66
2022/07/18 10:23:25;;;;;;;1.83;1.15;;;37.50;28.40;;;;;;5052629;28;20640;-66
2022/07/18 10:26:12;;;;;;;1.55;1.30;;;37.40;28.60;;;;;;5052572;28;20207;-67
2022/07/18 10:31:37;;;;;;;1.58;1.10;;;37.70;28.10;;;;;;5052278;28;20177;-67
2022/07/18 10:34:06;;;;;;;3.13;1.15;;;37.50;27.80;;;;;;5052531;28;20183;-67
2022/07/18 10:36:36;;;;;;;1.10;1.10;;;37.40;28.20;;;;;;5052225;28;20262;-67
2022/07/18 10:39:14;;;;;;;1.15;1.00;;;37.40;28.40;;;;;;5052298;28;20629;-67
2022/07/18 10:41:42;;;;;;;1.92;1.17;;;37.40;27.90;;;;;;5052238;28;20180;-67
2022/07/18 10:44:23;;;;;;;2.80;1.35;;;37.50;30.00;;;;;;5052078;28;20329;-66
2022/07/18 10:47:11;;;;;;;1.10;1.10;;;37.60;28.10;;;;;;5052056;28;20180;-67
2022/07/18 10:49:57;;;;;;;1.17;1.17;;;37.50;27.60;;;;;;5052181;28;20565;-66
2022/07/18 10:52:28;;;;;;;2.20;1.38;;;37.00;28.00;;;;;;5051402;28;20181;-66
2022/07/18 10:55:03;;;;;;;1.75;1.10;;;36.50;28.40;;;;;;5052045;28;20200;-66
2022/07/18 10:57:50;;;;;;;0.73;0.73;;;36.30;29.10;;;;;;5051794;28;20176;-66
2022/07/18 11:00:22;;;;;;;5.38;0.90;;;36.20;28.80;;;;;;5050843;28;20172;-66
2022/07/18 11:03:03;;;;;;;3.65;1.00;;;36.30;28.70;;;;;;5050717;28;20180;-66
2022/07/18 11:05:28;;;;;;;1.58;1.10;;;36.40;29.30;;;;;;5051784;28;20222;-66
2022/07/18 11:08:07;;;;;;;1.40;1.20;;;36.40;28.50;;;;;;5052014;28;20227;-66
2022/07/18 11:10:50;;;;;;;1.75;1.25;;;36.40;28.90;;;;;;5052049;28;20173;-67
2022/07/18 11:13:48;;;;;;;1.30;1.13;;;36.60;29.90;;;;;;5051825;28;20177;-67
2022/07/18 11:16:12;;;;;;;2.20;1.23;;;36.90;29.40;;;;;;5051565;28;20216;-66
2022/07/18 11:18:40;;;;;;;2.10;1.20;;;36.90;28.90;;;;;;5051982;28;20230;-66
2022/07/18 11:21:21;;;;;;;1.23;1.13;;;37.10;29.90;;;;;;5051484;28;20236;-66
2022/07/18 11:23:49;;;;;;;3.70;1.20;;;37.50;29.30;;;;;;5051236;28;20593;-67
2022/07/18 11:26:16;;;;;;;1.98;1.40;;;37.70;28.50;;;;;;5051355;28;20275;-67
2022/07/18 11:28:41;;;;;;;2.47;1.20;;;37.90;28.90;;;;;;5051551;28;20180;-67
2022/07/18 11:31:10;;;;;;;1.30;1.20;;;38.20;29.70;;;;;;5051019;28;20173;-67
2022/07/18 11:33:38;;;;;;;2.40;1.30;;;38.30;28.60;;;;;;5051726;28;20192;-67
2022/07/18 11:36:09;;;;;;;1.13;1.13;;;38.40;29.00;;;;;;5051644;28;20566;-67
2022/07/18 11:38:36;;;;;;;1.40;1.30;;;38.60;28.50;;;;;;5051639;28;20180;-67
2022/07/18 11:41:03;;;;;;;1.55;1.08;;;38.80;28.60;;;;;;5052103;28;20188;-67
2022/07/18 11:43:28;;;;;;;1.00;0.90;;;39.00;28.40;;;;;;5055417;28;20579;-67
2022/07/18 11:46:10;;;;;;;5.05;1.23;;;39.00;27.60;;;;;;5054323;28;20180;-67
2022/07/18 11:48:38;;;;;;;1.27;1.17;;;38.70;28.00;;;;;;5055532;28;20184;-67
2022/07/18 11:51:15;;;;;;;2.78;1.20;;;38.50;29.00;;;;;;5055562;28;20180;-67
2022/07/18 11:53:45;;;;;;;2.28;1.10;;;38.40;27.80;;;;;;5055392;28;20666;-67
2022/07/18 11:56:11;;;;;;;1.45;1.10;;;38.40;28.20;;;;;;5055272;28;20240;-67
2022/07/18 11:58:38;;;;;;;1.30;1.10;;;38.30;29.20;;;;;;5055402;28;20632;-68
2022/07/18 12:01:04;;;;;;;2.13;1.15;;;38.20;28.10;;;;;;5055295;28;20268;-67
2022/07/18 12:03:30;;;;;;;1.40;1.30;;;38.30;28.50;;;;;;5054992;28;20208;-67
2022/07/18 12:05:56;;;;;;;1.80;1.10;;;38.50;27.90;;;;;;5055214;28;20254;-67
2022/07/18 12:08:35;;;;;;;1.30;1.20;;;38.30;27.50;;;;;;5055019;28;20620;-67
2022/07/18 12:11:10;;;;;;;2.00;1.33;;;38.20;27.70;;;;;;5055156;28;20172;-67
2022/07/18 12:13:51;;;;;;;2.75;1.20;;;38.10;27.90;;;;;;5054983;28;20528;-67
2022/07/18 12:16:33;;;;;;;1.90;1.00;;;37.80;27.80;;;;;;5054800;28;20216;-67
2022/07/18 12:19:02;;;;;;;3.92;1.05;;;37.70;27.70;;;;;;5054872;28;20173;-67
2022/07/18 12:21:49;;;;;;;1.98;1.35;;;37.70;27.90;;;;;;5054556;28;20695;-64
2022/07/18 12:24:38;;;;;;;1.90;1.10;;;37.60;28.40;;;;;;5054835;28;20679;-64
2022/07/18 12:27:16;;;;;;;1.10;0.95;;;37.50;27.80;;;;;;5053603;28;20268;-64
2022/07/18 12:30:14;;;;;;;1.50;1.00;;;37.40;27.80;;;;;;5054740;28;20187;-64
2022/07/18 12:32:45;;;;;;;1.30;1.20;;;37.30;28.30;;;;;;5054724;28;20173;-64
2022/07/18 12:35:20;;;;;;;1.25;1.15;;;37.10;27.80;;;;;;5054555;28;20220;-67
2022/07/18 12:38:07;;;;;;;3.28;2.60;;;37.10;28.70;;;;;;5054508;28;20263;-67
2022/07/18 12:40:47;;;;;;;3.63;1.17;;;37.40;28.50;;;;;;5054541;28;20199;-67
2022/07/18 12:43:15;;;;;;;1.23;1.13;;;37.50;28.40;;;;;;5054434;28;20620;-67
2022/07/18 12:45:42;;;;;;;1.13;0.90;;;37.60;28.70;;;;;;5054322;28;20184;-67
2022/07/18 12:48:10;;;;;;;1.40;1.20;;;37.70;28.60;;;;;;5054177;28;20511;-67
2022/07/18 12:50:37;;;;;;;5.65;2.55;;;37.90;28.70;;;;;;5054343;28;20180;-67
2022/07/18 12:53:04;;;;;;;1.73;1.40;;;38.10;28.40;;;;;;5054292;28;20180;-67
2022/07/18 12:55:29;;;;;;;8.68;5.50;;;38.20;28.20;;;;;;5054082;28;20212;-67
2022/07/18 12:57:55;;;;;;;1.83;1.67;;;38.30;28.00;;;;;;5054133;28;20253;-66